sensor_id;sensor_type;location;lat;lon;timestamp;pressure;altitude;pressure_sealevel;temperature;humidity
79347;BME280;68815;48.810;44.482;2024-01-11T00:03:02;101061;;;-14.9;73.3
79347;BME280;68815;48.810;44.482;2024-01-11T00:06:04;101062;;;-14.8;72.3
79347;BME280;68815;48.810;44.482;2024-01-11T00:09:06;101071;;;-15;73.2
79347;BME280;68815;48.810;44.482;2024-01-11T00:12:08;101085;;;-15;73.4
79347;BME280;68815;48.810;44.482;2024-01-11T00:15:11;101093;;;-15;73.2
79347;BME280;68815;48.810;44.482;2024-01-11T00:18:13;101086;;;-14.8;72.5
79347;BME280;68815;48.810;44.482;2024-01-11T00:21:15;101086;;;-14.9;72.6
79347;BME280;68815;48.810;44.482;2024-01-11T00:24:17;101090;;;-15.2;73.2
79347;BME280;68815;48.810;44.482;2024-01-11T00:27:20;101093;;;-15.2;73.7
79347;BME280;68815;48.810;44.482;2024-01-11T00:30:22;101082;;;-15.2;73.2
79347;BME280;68815;48.810;44.482;2024-01-11T00:33:23;101089;;;-15.2;73.6
79347;BME280;68815;48.810;44.482;2024-01-11T00:36:25;101077;;;-15;72.8
79347;BME280;68815;48.810;44.482;2024-01-11T00:39:27;101072;;;-15.2;72.7
79347;BME280;68815;48.810;44.482;2024-01-11T00:42:29;101076;;;-15.1;73.1
79347;BME280;68815;48.810;44.482;2024-01-11T00:45:31;101072;;;-15;72.7
79347;BME280;68815;48.810;44.482;2024-01-11T00:48:33;101060;;;-15.1;73.6
79347;BME280;68815;48.810;44.482;2024-01-11T00:51:35;101056;;;-14.9;73.2
79347;BME280;68815;48.810;44.482;2024-01-11T00:54:37;101055;;;-15;73.7
79347;BME280;68815;48.810;44.482;2024-01-11T00:57:39;101056;;;-15.2;73.9
79347;BME280;68815;48.810;44.482;2024-01-11T01:00:41;101052;;;-15.1;74.1
79347;BME280;68815;48.810;44.482;2024-01-11T01:03:43;101043;;;-15.2;73.9
79347;BME280;68815;48.810;44.482;2024-01-11T01:06:46;101038;;;-15.1;74.2
79347;BME280;68815;48.810;44.482;2024-01-11T01:09:48;101032;;;-14.8;74.1
79347;BME280;68815;48.810;44.482;2024-01-11T01:12:50;101040;;;-14.8;74.1
79347;BME280;68815;48.810;44.482;2024-01-11T01:15:51;101040;;;-14.7;74.3
79347;BME280;68815;48.810;44.482;2024-01-11T01:18:58;101037;;;-14.6;73.3
79347;BME280;68815;48.810;44.482;2024-01-11T01:22:01;101044;;;-14.7;73.2
79347;BME280;68815;48.810;44.482;2024-01-11T01:25:03;101040;;;-14.6;73.5
79347;BME280;68815;48.810;44.482;2024-01-11T01:28:05;101023;;;-14.6;73.9
79347;BME280;68815;48.810;44.482;2024-01-11T01:31:07;101019;;;-14.7;74.3
79347;BME280;68815;48.810;44.482;2024-01-11T01:34:09;101003;;;-14.6;74.4
79347;BME280;68815;48.810;44.482;2024-01-11T01:37:11;100998;;;-14.6;74.8
79347;BME280;68815;48.810;44.482;2024-01-11T01:40:13;100984;;;-14.5;74.8
79347;BME280;68815;48.810;44.482;2024-01-11T01:43:15;100983;;;-14.5;74.2
79347;BME280;68815;48.810;44.482;2024-01-11T01:46:22;100980;;;-14.4;74.8
79347;BME280;68815;48.810;44.482;2024-01-11T01:49:25;100970;;;-14.4;74.4
79347;BME280;68815;48.810;44.482;2024-01-11T01:52:27;100975;;;-14.2;73.9
79347;BME280;68815;48.810;44.482;2024-01-11T01:55:29;100969;;;-14.3;74.3
79347;BME280;68815;48.810;44.482;2024-01-11T01:58:31;100974;;;-14.4;74.4
79347;BME280;68815;48.810;44.482;2024-01-11T02:01:33;100978;;;-14.3;74.7
79347;BME280;68815;48.810;44.482;2024-01-11T02:04:35;100975;;;-14.4;74.2
79347;BME280;68815;48.810;44.482;2024-01-11T02:07:37;100975;;;-14.5;74.6
79347;BME280;68815;48.810;44.482;2024-01-11T02:10:40;100956;;;-14.4;74.1
79347;BME280;68815;48.810;44.482;2024-01-11T02:13:42;100964;;;-14.4;74.5
79347;BME280;68815;48.810;44.482;2024-01-11T02:16:44;100961;;;-14.4;74.6
79347;BME280;68815;48.810;44.482;2024-01-11T02:19:46;100947;;;-14.6;75
79347;BME280;68815;48.810;44.482;2024-01-11T02:22:53;100947;;;-14.6;75.3
79347;BME280;68815;48.810;44.482;2024-01-11T02:25:59;100955;;;-14.5;75.3
79347;BME280;68815;48.810;44.482;2024-01-11T02:29:01;100958;;;-14.5;75.1
79347;BME280;68815;48.810;44.482;2024-01-11T02:32:04;100948;;;-14.5;74.8
79347;BME280;68815;48.810;44.482;2024-01-11T02:35:06;100944;;;-14.3;74.5
79347;BME280;68815;48.810;44.482;2024-01-11T02:38:08;100941;;;-14.5;74.6
79347;BME280;68815;48.810;44.482;2024-01-11T02:41:11;100958;;;-14.4;74.6
79347;BME280;68815;48.810;44.482;2024-01-11T02:44:13;100945;;;-14.4;73.8
79347;BME280;68815;48.810;44.482;2024-01-11T02:47:15;100953;;;-14.4;74.1
79347;BME280;68815;48.810;44.482;2024-01-11T02:50:17;100951;;;-14.5;74.8
79347;BME280;68815;48.810;44.482;2024-01-11T02:53:19;100952;;;-14.4;74.4
79347;BME280;68815;48.810;44.482;2024-01-11T02:56:21;100934;;;-14.4;73.8
79347;BME280;68815;48.810;44.482;2024-01-11T02:59:23;100933;;;-14.4;74
79347;BME280;68815;48.810;44.482;2024-01-11T03:02:24;100941;;;-14.4;74.5
79347;BME280;68815;48.810;44.482;2024-01-11T03:05:26;100932;;;-14.4;74.6
79347;BME280;68815;48.810;44.482;2024-01-11T03:08:28;100927;;;-14.5;73.7
79347;BME280;68815;48.810;44.482;2024-01-11T03:11:30;100923;;;-14.4;74.5
79347;BME280;68815;48.810;44.482;2024-01-11T03:14:32;100916;;;-14.4;75.1
79347;BME280;68815;48.810;44.482;2024-01-11T03:17:34;100914;;;-14.3;74
79347;BME280;68815;48.810;44.482;2024-01-11T03:20:35;100917;;;-14.3;74
79347;BME280;68815;48.810;44.482;2024-01-11T03:23:37;100918;;;-14.2;73.8
79347;BME280;68815;48.810;44.482;2024-01-11T03:26:40;100917;;;-14.1;73.7
79347;BME280;68815;48.810;44.482;2024-01-11T03:29:42;100910;;;-14;73.2
79347;BME280;68815;48.810;44.482;2024-01-11T03:32:44;100911;;;-14.1;73.9
79347;BME280;68815;48.810;44.482;2024-01-11T03:35:46;100904;;;-14.2;74.3
79347;BME280;68815;48.810;44.482;2024-01-11T03:38:48;100904;;;-14.4;74.1
79347;BME280;68815;48.810;44.482;2024-01-11T03:41:50;100902;;;-14.3;74.6
79347;BME280;68815;48.810;44.482;2024-01-11T03:44:52;100903;;;-14.3;74.9
79347;BME280;68815;48.810;44.482;2024-01-11T03:47:53;100901;;;-14.2;74.6
79347;BME280;68815;48.810;44.482;2024-01-11T03:50:55;100884;;;-14;74.1
79347;BME280;68815;48.810;44.482;2024-01-11T03:53:57;100877;;;-14;73.9
79347;BME280;68815;48.810;44.482;2024-01-11T03:56:59;100873;;;-14.2;74.6
79347;BME280;68815;48.810;44.482;2024-01-11T04:00:01;100859;;;-14.1;74.4
79347;BME280;68815;48.810;44.482;2024-01-11T04:03:03;100844;;;-14.1;74.1
79347;BME280;68815;48.810;44.482;2024-01-11T04:06:05;100823;;;-14;74.3
79347;BME280;68815;48.810;44.482;2024-01-11T04:09:07;100825;;;-14.1;74.9
79347;BME280;68815;48.810;44.482;2024-01-11T04:12:08;100827;;;-14;74.9
79347;BME280;68815;48.810;44.482;2024-01-11T04:15:12;100819;;;-13.9;74.3
79347;BME280;68815;48.810;44.482;2024-01-11T04:18:14;100816;;;-13.9;74.9
79347;BME280;68815;48.810;44.482;2024-01-11T04:21:23;100802;;;-13.6;74.9
79347;BME280;68815;48.810;44.482;2024-01-11T04:24:26;100797;;;-13.4;74.4
79347;BME280;68815;48.810;44.482;2024-01-11T04:27:28;100796;;;-13.3;74
79347;BME280;68815;48.810;44.482;2024-01-11T04:30:31;100785;;;-13.2;74.2
79347;BME280;68815;48.810;44.482;2024-01-11T04:33:33;100791;;;-13.3;74.1
79347;BME280;68815;48.810;44.482;2024-01-11T04:36:37;100787;;;-13.2;74.8
79347;BME280;68815;48.810;44.482;2024-01-11T04:39:39;100782;;;-13.3;74.6
79347;BME280;68815;48.810;44.482;2024-01-11T04:42:41;100777;;;-13.3;75
79347;BME280;68815;48.810;44.482;2024-01-11T04:45:43;100778;;;-13.2;75.5
79347;BME280;68815;48.810;44.482;2024-01-11T04:48:46;100754;;;-13;74.7
79347;BME280;68815;48.810;44.482;2024-01-11T04:51:48;100747;;;-13.1;74.8
79347;BME280;68815;48.810;44.482;2024-01-11T04:54:50;100741;;;-13;75.4
79347;BME280;68815;48.810;44.482;2024-01-11T04:57:52;100736;;;-12.9;74.6
79347;BME280;68815;48.810;44.482;2024-01-11T05:00:54;100735;;;-13;75.5
79347;BME280;68815;48.810;44.482;2024-01-11T05:03:56;100736;;;-12.8;75.1
79347;BME280;68815;48.810;44.482;2024-01-11T05:06:57;100744;;;-12.7;75.1
79347;BME280;68815;48.810;44.482;2024-01-11T05:09:59;100755;;;-12.4;75.1
79347;BME280;68815;48.810;44.482;2024-01-11T05:13:01;100754;;;-12.5;75
79347;BME280;68815;48.810;44.482;2024-01-11T05:16:03;100747;;;-12.5;74.3
79347;BME280;68815;48.810;44.482;2024-01-11T05:19:05;100748;;;-12.5;74.6
79347;BME280;68815;48.810;44.482;2024-01-11T05:22:07;100726;;;-12.4;75.2
79347;BME280;68815;48.810;44.482;2024-01-11T05:25:10;100720;;;-12.4;75.3
79347;BME280;68815;48.810;44.482;2024-01-11T05:28:11;100712;;;-12.3;74.2
79347;BME280;68815;48.810;44.482;2024-01-11T05:31:15;100706;;;-12.5;75.3
79347;BME280;68815;48.810;44.482;2024-01-11T05:34:17;100698;;;-12.5;74.6
79347;BME280;68815;48.810;44.482;2024-01-11T05:37:19;100704;;;-12.4;75.9
79347;BME280;68815;48.810;44.482;2024-01-11T05:40:20;100698;;;-12.3;75
79347;BME280;68815;48.810;44.482;2024-01-11T05:43:22;100690;;;-12.3;76
79347;BME280;68815;48.810;44.482;2024-01-11T05:46:24;100691;;;-12.1;75.6
79347;BME280;68815;48.810;44.482;2024-01-11T05:49:26;100691;;;-12;75.3
79347;BME280;68815;48.810;44.482;2024-01-11T05:52:28;100687;;;-11.7;74.7
79347;BME280;68815;48.810;44.482;2024-01-11T05:55:30;100673;;;-11.9;73.8
79347;BME280;68815;48.810;44.482;2024-01-11T05:58:31;100674;;;-11.9;75
79347;BME280;68815;48.810;44.482;2024-01-11T06:01:40;100668;;;-11.9;75.1
79347;BME280;68815;48.810;44.482;2024-01-11T06:04:43;100654;;;-11.9;74.8
79347;BME280;68815;48.810;44.482;2024-01-11T06:07:44;100645;;;-11.8;75
79347;BME280;68815;48.810;44.482;2024-01-11T06:10:46;100653;;;-11.7;75.6
79347;BME280;68815;48.810;44.482;2024-01-11T06:13:48;100636;;;-12;75.2
79347;BME280;68815;48.810;44.482;2024-01-11T06:16:50;100624;;;-12.1;76.2
79347;BME280;68815;48.810;44.482;2024-01-11T06:19:51;100621;;;-11.9;76.5
79347;BME280;68815;48.810;44.482;2024-01-11T06:22:53;100607;;;-11.6;75.7
79347;BME280;68815;48.810;44.482;2024-01-11T06:25:55;100598;;;-11.6;76
79347;BME280;68815;48.810;44.482;2024-01-11T06:28:57;100595;;;-11.2;75.7
79347;BME280;68815;48.810;44.482;2024-01-11T06:31:59;100593;;;-11.1;74.1
79347;BME280;68815;48.810;44.482;2024-01-11T06:35:01;100590;;;-10.8;74.7
79347;BME280;68815;48.810;44.482;2024-01-11T06:38:03;100577;;;-10.9;73.3
79347;BME280;68815;48.810;44.482;2024-01-11T06:41:05;100567;;;-11.2;73.6
79347;BME280;68815;48.810;44.482;2024-01-11T06:44:07;100575;;;-11.2;75.3
79347;BME280;68815;48.810;44.482;2024-01-11T06:47:08;100565;;;-11;74
79347;BME280;68815;48.810;44.482;2024-01-11T06:50:11;100558;;;-10.7;73.9
79347;BME280;68815;48.810;44.482;2024-01-11T06:53:13;100559;;;-10.6;73.3
79347;BME280;68815;48.810;44.482;2024-01-11T06:56:16;100539;;;-10.7;73
79347;BME280;68815;48.810;44.482;2024-01-11T06:59:18;100542;;;-10.6;72.8
79347;BME280;68815;48.810;44.482;2024-01-11T07:02:19;100535;;;-10.6;72.5
79347;BME280;68815;48.810;44.482;2024-01-11T07:05:22;100523;;;-10.4;72
79347;BME280;68815;48.810;44.482;2024-01-11T07:08:24;100510;;;-10.7;72.7
79347;BME280;68815;48.810;44.482;2024-01-11T07:11:26;100513;;;-10.5;73.6
79347;BME280;68815;48.810;44.482;2024-01-11T07:14:28;100491;;;-10.4;72
79347;BME280;68815;48.810;44.482;2024-01-11T07:17:29;100498;;;-10.5;72
79347;BME280;68815;48.810;44.482;2024-01-11T07:37:21;100451;;;-10.4;72
79347;BME280;68815;48.810;44.482;2024-01-11T07:40:23;100445;;;-10.1;73.4
79347;BME280;68815;48.810;44.482;2024-01-11T07:43:30;100437;;;-9.9;72.5
79347;BME280;68815;48.810;44.482;2024-01-11T07:46:32;100440;;;-10;71.2
79347;BME280;68815;48.810;44.482;2024-01-11T07:49:34;100427;;;-9.8;71.7
79347;BME280;68815;48.810;44.482;2024-01-11T07:52:36;100426;;;-9.7;71.7
79347;BME280;68815;48.810;44.482;2024-01-11T07:55:38;100416;;;-9.6;70.4
79347;BME280;68815;48.810;44.482;2024-01-11T07:58:40;100397;;;-9.7;70.1
79347;BME280;68815;48.810;44.482;2024-01-11T08:01:42;100389;;;-9.7;68.3
79347;BME280;68815;48.810;44.482;2024-01-11T08:04:44;100386;;;-9.7;69.3
79347;BME280;68815;48.810;44.482;2024-01-11T08:07:46;100385;;;-9.6;69.1
79347;BME280;68815;48.810;44.482;2024-01-11T08:10:48;100376;;;-9.5;68.5
79347;BME280;68815;48.810;44.482;2024-01-11T08:13:50;100345;;;-9.4;68.6
79347;BME280;68815;48.810;44.482;2024-01-11T08:16:51;100334;;;-9.2;69.2
79347;BME280;68815;48.810;44.482;2024-01-11T08:19:53;100335;;;-9.1;68.7
79347;BME280;68815;48.810;44.482;2024-01-11T08:22:55;100329;;;-9.6;68.8
79347;BME280;68815;48.810;44.482;2024-01-11T08:25:57;100314;;;-9.4;70.3
79347;BME280;68815;48.810;44.482;2024-01-11T08:28:59;100295;;;-9.3;70.9
79347;BME280;68815;48.810;44.482;2024-01-11T08:32:01;100279;;;-9.2;70.5
79347;BME280;68815;48.810;44.482;2024-01-11T08:35:04;100262;;;-9.6;70.5
79347;BME280;68815;48.810;44.482;2024-01-11T08:38:06;100256;;;-9.6;71.4
79347;BME280;68815;48.810;44.482;2024-01-11T08:41:08;100232;;;-9.6;72.2
79347;BME280;68815;48.810;44.482;2024-01-11T08:44:10;100226;;;-9.4;72.7
79347;BME280;68815;48.810;44.482;2024-01-11T08:47:12;100223;;;-9;73.3
79347;BME280;68815;48.810;44.482;2024-01-11T08:50:15;100199;;;-8.9;73.1
79347;BME280;68815;48.810;44.482;2024-01-11T08:53:17;100198;;;-9.1;72.8
79347;BME280;68815;48.810;44.482;2024-01-11T08:56:19;100193;;;-9.1;74.6
79347;BME280;68815;48.810;44.482;2024-01-11T08:59:21;100187;;;-9.3;74.6
79347;BME280;68815;48.810;44.482;2024-01-11T09:02:23;100177;;;-9.1;75.3
79347;BME280;68815;48.810;44.482;2024-01-11T09:05:25;100176;;;-9.1;74.2
79347;BME280;68815;48.810;44.482;2024-01-11T09:08:27;100167;;;-9.1;75.3
79347;BME280;68815;48.810;44.482;2024-01-11T09:11:29;100168;;;-9.2;76
79347;BME280;68815;48.810;44.482;2024-01-11T09:14:30;100155;;;-8.9;76.6
79347;BME280;68815;48.810;44.482;2024-01-11T09:17:32;100143;;;-8.8;77
79347;BME280;68815;48.810;44.482;2024-01-11T09:20:35;100115;;;-8.7;77.5
79347;BME280;68815;48.810;44.482;2024-01-11T09:23:36;100103;;;-8.8;78
79347;BME280;68815;48.810;44.482;2024-01-11T09:26:39;100097;;;-9;79.1
79347;BME280;68815;48.810;44.482;2024-01-11T09:29:42;100080;;;-9;80
79347;BME280;68815;48.810;44.482;2024-01-11T09:32:44;100064;;;-8.9;80.3
79347;BME280;68815;48.810;44.482;2024-01-11T09:35:46;100061;;;-8.7;80.8
79347;BME280;68815;48.810;44.482;2024-01-11T09:38:48;100026;;;-8.6;81.7
79347;BME280;68815;48.810;44.482;2024-01-11T09:41:55;100020;;;-8.6;82.5
79347;BME280;68815;48.810;44.482;2024-01-11T09:45:01;100011;;;-8.6;82.2
79347;BME280;68815;48.810;44.482;2024-01-11T09:48:06;100004;;;-8.7;83.5
79347;BME280;68815;48.810;44.482;2024-01-11T09:51:10;99999;;;-8.9;83.7
79347;BME280;68815;48.810;44.482;2024-01-11T09:54:13;99983;;;-8.8;83.6
79347;BME280;68815;48.810;44.482;2024-01-11T09:57:22;99962;;;-8.9;84
79347;BME280;68815;48.810;44.482;2024-01-11T10:00:27;99961;;;-8.9;85.2
79347;BME280;68815;48.810;44.482;2024-01-11T10:03:30;99953;;;-8.7;85.5
79347;BME280;68815;48.810;44.482;2024-01-11T10:06:33;99937;;;-8.6;85.8
79347;BME280;68815;48.810;44.482;2024-01-11T10:09:35;99925;;;-8.4;86.2
79347;BME280;68815;48.810;44.482;2024-01-11T10:12:38;99906;;;-8.3;86.2
79347;BME280;68815;48.810;44.482;2024-01-11T10:15:40;99893;;;-8.2;86.7
79347;BME280;68815;48.810;44.482;2024-01-11T10:18:42;99888;;;-8.1;87.4
79347;BME280;68815;48.810;44.482;2024-01-11T10:21:43;99877;;;-8;87.9
79347;BME280;68815;48.810;44.482;2024-01-11T10:24:45;99856;;;-8;88.5
79347;BME280;68815;48.810;44.482;2024-01-11T10:27:53;99859;;;-7.9;89.2
79347;BME280;68815;48.810;44.482;2024-01-11T10:30:55;99850;;;-7.7;89.5
79347;BME280;68815;48.810;44.482;2024-01-11T10:33:57;99846;;;-7.5;89.5
79347;BME280;68815;48.810;44.482;2024-01-11T10:36:59;99848;;;-7.3;90.2
79347;BME280;68815;48.810;44.482;2024-01-11T10:40:03;99827;;;-7.2;91.5
79347;BME280;68815;48.810;44.482;2024-01-11T10:43:08;99826;;;-7;91.7
79347;BME280;68815;48.810;44.482;2024-01-11T10:46:11;99813;;;-6.9;91.8
79347;BME280;68815;48.810;44.482;2024-01-11T10:49:19;99794;;;-6.9;92.1
79347;BME280;68815;48.810;44.482;2024-01-11T10:52:27;99769;;;-6.8;92.3
79347;BME280;68815;48.810;44.482;2024-01-11T10:55:33;99750;;;-6.8;92.7
79347;BME280;68815;48.810;44.482;2024-01-11T10:58:35;99739;;;-6.7;93
79347;BME280;68815;48.810;44.482;2024-01-11T11:01:38;99747;;;-6.6;92.9
79347;BME280;68815;48.810;44.482;2024-01-11T11:04:41;99735;;;-6.4;92.5
79347;BME280;68815;48.810;44.482;2024-01-11T11:07:44;99722;;;-6.4;92.5
79347;BME280;68815;48.810;44.482;2024-01-11T11:10:55;99711;;;-6.3;92.8
79347;BME280;68815;48.810;44.482;2024-01-11T11:14:00;99697;;;-6.2;93.8
79347;BME280;68815;48.810;44.482;2024-01-11T11:17:03;99691;;;-6.1;94.3
79347;BME280;68815;48.810;44.482;2024-01-11T11:20:06;99684;;;-6.1;95.3
79347;BME280;68815;48.810;44.482;2024-01-11T11:23:09;99679;;;-5.9;95.9
79347;BME280;68815;48.810;44.482;2024-01-11T11:26:15;99671;;;-5.9;96.3
79347;BME280;68815;48.810;44.482;2024-01-11T11:29:20;99648;;;-5.8;97
79347;BME280;68815;48.810;44.482;2024-01-11T11:32:35;99653;;;-5.7;97.4
79347;BME280;68815;48.810;44.482;2024-01-11T11:35:38;99650;;;-5.6;97.5
79347;BME280;68815;48.810;44.482;2024-01-11T11:38:40;99632;;;-5.6;97.7
79347;BME280;68815;48.810;44.482;2024-01-11T11:41:42;99623;;;-5.6;97.8
79347;BME280;68815;48.810;44.482;2024-01-11T11:44:48;99606;;;-5.6;97.9
79347;BME280;68815;48.810;44.482;2024-01-11T11:47:51;99605;;;-5.5;97.9
79347;BME280;68815;48.810;44.482;2024-01-11T11:51:01;99610;;;-5.4;98
79347;BME280;68815;48.810;44.482;2024-01-11T11:54:04;99604;;;-5.4;97.8
79347;BME280;68815;48.810;44.482;2024-01-11T11:57:06;99596;;;-5.4;98
79347;BME280;68815;48.810;44.482;2024-01-11T12:00:10;99590;;;-5.3;98.2
79347;BME280;68815;48.810;44.482;2024-01-11T12:03:13;99576;;;-5.2;98.6
79347;BME280;68815;48.810;44.482;2024-01-11T12:06:15;99572;;;-5.1;98.8
79347;BME280;68815;48.810;44.482;2024-01-11T12:09:18;99561;;;-5.1;98.9
79347;BME280;68815;48.810;44.482;2024-01-11T12:12:20;99549;;;-5;99.1
79347;BME280;68815;48.810;44.482;2024-01-11T12:15:22;99549;;;-4.9;99.3
79347;BME280;68815;48.810;44.482;2024-01-11T12:18:24;99519;;;-4.8;99.4
79347;BME280;68815;48.810;44.482;2024-01-11T12:21:27;99524;;;-4.8;99.3
79347;BME280;68815;48.810;44.482;2024-01-11T12:24:29;99531;;;-4.8;99.5
79347;BME280;68815;48.810;44.482;2024-01-11T12:27:32;99526;;;-4.8;99.8
79347;BME280;68815;48.810;44.482;2024-01-11T12:30:34;99514;;;-4.7;100
79347;BME280;68815;48.810;44.482;2024-01-11T12:33:36;99516;;;-4.6;100
79347;BME280;68815;48.810;44.482;2024-01-11T12:36:38;99516;;;-4.6;100
79347;BME280;68815;48.810;44.482;2024-01-11T12:39:43;99506;;;-4.5;100
79347;BME280;68815;48.810;44.482;2024-01-11T12:42:45;99497;;;-4.4;100
79347;BME280;68815;48.810;44.482;2024-01-11T12:45:47;99495;;;-4.4;99.9
79347;BME280;68815;48.810;44.482;2024-01-11T12:48:49;99491;;;-4.3;99.9
79347;BME280;68815;48.810;44.482;2024-01-11T12:51:52;99472;;;-4.3;99.5
79347;BME280;68815;48.810;44.482;2024-01-11T12:54:55;99467;;;-4.3;99.3
79347;BME280;68815;48.810;44.482;2024-01-11T12:58:03;99453;;;-4.3;99.3
79347;BME280;68815;48.810;44.482;2024-01-11T13:01:05;99441;;;-4.2;99.3
79347;BME280;68815;48.810;44.482;2024-01-11T13:04:09;99442;;;-4.2;99.5
79347;BME280;68815;48.810;44.482;2024-01-11T13:07:11;99429;;;-4.2;99.7
79347;BME280;68815;48.810;44.482;2024-01-11T13:10:13;99424;;;-4.2;99.9
79347;BME280;68815;48.810;44.482;2024-01-11T13:13:15;99420;;;-4.1;99.8
79347;BME280;68815;48.810;44.482;2024-01-11T13:16:17;99412;;;-4.1;100
79347;BME280;68815;48.810;44.482;2024-01-11T13:19:19;99414;;;-4.1;100
79347;BME280;68815;48.810;44.482;2024-01-11T13:22:21;99412;;;-4.1;100
79347;BME280;68815;48.810;44.482;2024-01-11T13:25:23;99402;;;-4.1;100
79347;BME280;68815;48.810;44.482;2024-01-11T13:28:24;99389;;;-4.1;100
79347;BME280;68815;48.810;44.482;2024-01-11T13:31:26;99395;;;-4.1;100
79347;BME280;68815;48.810;44.482;2024-01-11T13:34:28;99379;;;-4.1;100
79347;BME280;68815;48.810;44.482;2024-01-11T13:37:30;99377;;;-4.1;100
79347;BME280;68815;48.810;44.482;2024-01-11T13:40:32;99365;;;-4.1;99.8
79347;BME280;68815;48.810;44.482;2024-01-11T13:43:34;99367;;;-4.1;99.6
79347;BME280;68815;48.810;44.482;2024-01-11T13:46:36;99354;;;-4.1;99.6
79347;BME280;68815;48.810;44.482;2024-01-11T13:49:38;99343;;;-4.1;99.6
79347;BME280;68815;48.810;44.482;2024-01-11T13:52:40;99339;;;-4.1;99.5
79347;BME280;68815;48.810;44.482;2024-01-11T13:55:42;99333;;;-4;99.4
79347;BME280;68815;48.810;44.482;2024-01-11T13:58:44;99328;;;-4;99.5
79347;BME280;68815;48.810;44.482;2024-01-11T14:01:47;99314;;;-4;99.7
79347;BME280;68815;48.810;44.482;2024-01-11T14:04:49;99305;;;-4.1;99.9
79347;BME280;68815;48.810;44.482;2024-01-11T14:07:50;99300;;;-4;100
79347;BME280;68815;48.810;44.482;2024-01-11T14:10:52;99295;;;-4;100
79347;BME280;68815;48.810;44.482;2024-01-11T14:13:55;99281;;;-4;100
79347;BME280;68815;48.810;44.482;2024-01-11T14:16:57;99284;;;-4;100
79347;BME280;68815;48.810;44.482;2024-01-11T14:20:02;99274;;;-4;100
79347;BME280;68815;48.810;44.482;2024-01-11T14:23:09;99267;;;-4;100
79347;BME280;68815;48.810;44.482;2024-01-11T14:26:11;99256;;;-4;100
79347;BME280;68815;48.810;44.482;2024-01-11T14:29:12;99247;;;-3.9;100
79347;BME280;68815;48.810;44.482;2024-01-11T14:32:14;99241;;;-3.9;100
79347;BME280;68815;48.810;44.482;2024-01-11T14:35:16;99235;;;-3.9;100
79347;BME280;68815;48.810;44.482;2024-01-11T14:38:18;99223;;;-3.8;100
79347;BME280;68815;48.810;44.482;2024-01-11T14:41:20;99221;;;-3.8;100
79347;BME280;68815;48.810;44.482;2024-01-11T14:44:22;99223;;;-3.8;100
79347;BME280;68815;48.810;44.482;2024-01-11T14:47:23;99220;;;-3.8;100
79347;BME280;68815;48.810;44.482;2024-01-11T14:50:25;99214;;;-3.8;100
79347;BME280;68815;48.810;44.482;2024-01-11T14:53:27;99210;;;-3.7;100
79347;BME280;68815;48.810;44.482;2024-01-11T14:56:29;99203;;;-3.7;100
79347;BME280;68815;48.810;44.482;2024-01-11T14:59:31;99206;;;-3.7;100
79347;BME280;68815;48.810;44.482;2024-01-11T15:02:33;99193;;;-3.7;100
79347;BME280;68815;48.810;44.482;2024-01-11T15:05:34;99184;;;-3.6;100
79347;BME280;68815;48.810;44.482;2024-01-11T15:08:36;99178;;;-3.6;100
79347;BME280;68815;48.810;44.482;2024-01-11T15:11:38;99166;;;-3.6;100
79347;BME280;68815;48.810;44.482;2024-01-11T15:14:40;99166;;;-3.6;100
79347;BME280;68815;48.810;44.482;2024-01-11T15:17:42;99160;;;-3.6;100
79347;BME280;68815;48.810;44.482;2024-01-11T15:20:43;99161;;;-3.6;100
79347;BME280;68815;48.810;44.482;2024-01-11T15:23:46;99156;;;-3.6;100
79347;BME280;68815;48.810;44.482;2024-01-11T15:26:48;99139;;;-3.5;100
79347;BME280;68815;48.810;44.482;2024-01-11T15:29:50;99133;;;-3.5;100
79347;BME280;68815;48.810;44.482;2024-01-11T15:32:52;99140;;;-3.5;100
79347;BME280;68815;48.810;44.482;2024-01-11T15:35:54;99144;;;-3.5;100
79347;BME280;68815;48.810;44.482;2024-01-11T15:38:56;99136;;;-3.4;100
79347;BME280;68815;48.810;44.482;2024-01-11T15:41:58;99131;;;-3.3;100
79347;BME280;68815;48.810;44.482;2024-01-11T15:45:00;99129;;;-3.3;100
79347;BME280;68815;48.810;44.482;2024-01-11T15:48:02;99127;;;-3.3;100
79347;BME280;68815;48.810;44.482;2024-01-11T15:51:04;99134;;;-3.2;100
79347;BME280;68815;48.810;44.482;2024-01-11T15:54:06;99127;;;-3.2;100
79347;BME280;68815;48.810;44.482;2024-01-11T15:57:08;99127;;;-3.1;100
79347;BME280;68815;48.810;44.482;2024-01-11T16:00:10;99113;;;-3.1;100
79347;BME280;68815;48.810;44.482;2024-01-11T16:03:12;99100;;;-3.1;100
79347;BME280;68815;48.810;44.482;2024-01-11T16:06:14;99093;;;-3;100
79347;BME280;68815;48.810;44.482;2024-01-11T16:09:16;99098;;;-3;100
79347;BME280;68815;48.810;44.482;2024-01-11T16:12:19;99102;;;-2.9;100
79347;BME280;68815;48.810;44.482;2024-01-11T16:15:21;99089;;;-2.8;100
79347;BME280;68815;48.810;44.482;2024-01-11T16:18:26;99091;;;-2.8;100
79347;BME280;68815;48.810;44.482;2024-01-11T16:21:28;99074;;;-2.7;100
79347;BME280;68815;48.810;44.482;2024-01-11T16:24:31;99072;;;-2.7;100
79347;BME280;68815;48.810;44.482;2024-01-11T16:27:34;99075;;;-2.7;100
79347;BME280;68815;48.810;44.482;2024-01-11T16:30:36;99068;;;-2.7;100
79347;BME280;68815;48.810;44.482;2024-01-11T16:33:38;99072;;;-2.7;100
79347;BME280;68815;48.810;44.482;2024-01-11T16:36:40;99065;;;-2.6;100
79347;BME280;68815;48.810;44.482;2024-01-11T16:39:42;99062;;;-2.6;100
79347;BME280;68815;48.810;44.482;2024-01-11T16:42:44;99053;;;-2.6;100
79347;BME280;68815;48.810;44.482;2024-01-11T16:45:46;99066;;;-2.6;100
79347;BME280;68815;48.810;44.482;2024-01-11T16:48:48;99068;;;-2.6;100
79347;BME280;68815;48.810;44.482;2024-01-11T16:51:50;99054;;;-2.6;99.8
79347;BME280;68815;48.810;44.482;2024-01-11T16:54:52;99047;;;-2.6;99.6
79347;BME280;68815;48.810;44.482;2024-01-11T16:57:54;99046;;;-2.7;99.5
79347;BME280;68815;48.810;44.482;2024-01-11T17:00:56;99043;;;-2.7;99.5
79347;BME280;68815;48.810;44.482;2024-01-11T17:03:59;99033;;;-2.7;99.4
79347;BME280;68815;48.810;44.482;2024-01-11T17:07:02;99019;;;-2.7;99.3
79347;BME280;68815;48.810;44.482;2024-01-11T17:10:04;99015;;;-2.7;98.9
79347;BME280;68815;48.810;44.482;2024-01-11T17:13:06;99021;;;-2.7;98.7